CheckWX is a tool to help pilots better visualize weather data.  It is not intended as a substitute for an official pre-flight weather briefing.

09:29:12 UTC

DRRT METAR
Tahoua Airport
Tahoua, Niger
Current

29 mins ago

DRRT 200900Z 10018KT 0900 DU NSC 26/M10 Q1014
Observed
Feb-20 @ 09:00 UTC
Wind
  • 100° at 18 KTS
Visibility
901 meters
Flight Rules
LIFR
Conditions
Dust
Cloud Levels
  • Clear skies
Temperature
26°C / 79°F
Dewpoint
-10°C / 14°F
Humidity
8%
Altimeter
29.94" Hg
Pressure
1013.92 hPa
Previous

1 hour ago

DRRT 200800Z 12014KT 0900 DU NSC 23/M09 Q1013
Observed
Feb-20 @ 08:00 UTC
Wind
  • 120° at 14 KTS
Visibility
901 meters
Flight Rules
LIFR
Conditions
Dust
Cloud Levels
  • Clear skies
Temperature
23°C / 73°F
Dewpoint
-9°C / 16°F
Humidity
11%
Altimeter
29.91" Hg
Pressure
1012.92 hPa
Previous

2 hours ago

DRRT 200700Z 10008KT 2000 DU NSC 21/M11 Q1013
Observed
Feb-20 @ 07:00 UTC
Wind
  • 100° at 8 KTS
Visibility
1,996 meters
Flight Rules
IFR
Conditions
Dust
Cloud Levels
  • Clear skies
Temperature
21°C / 70°F
Dewpoint
-11°C / 12°F
Humidity
11%
Altimeter
29.91" Hg
Pressure
1012.92 hPa